createdAt,value
2019-01-04T00:00:27.884Z,8.50
2019-01-04T00:02:57.333Z,8.60
2019-01-04T00:05:26.786Z,8.53
2019-01-04T00:07:56.284Z,8.10
2019-01-04T00:20:00.512Z,8.40
2019-01-04T00:22:29.941Z,8.70
2019-01-04T00:24:59.380Z,8.73
2019-01-04T00:27:28.823Z,9.93
2019-01-04T00:29:58.248Z,8.53
2019-01-04T00:32:27.704Z,8.37
2019-01-04T00:34:57.162Z,9.70
2019-01-04T00:37:26.608Z,8.63
2019-01-04T00:39:56.034Z,8.90
2019-01-04T00:42:25.464Z,8.90
2019-01-04T00:44:54.883Z,9.23
2019-01-04T00:47:24.316Z,8.73
2019-01-04T00:49:53.747Z,8.23
2019-01-04T00:52:23.188Z,8.80
2019-01-04T00:54:54.554Z,8.87
2019-01-04T00:57:37.300Z,9.53
2019-01-04T01:00:33.925Z,9.00
2019-01-04T01:03:36.642Z,9.33
2019-01-04T01:06:39.317Z,8.73
2019-01-04T01:09:31.214Z,9.10
2019-01-04T01:12:15.588Z,8.70
2019-01-04T01:15:25.353Z,9.40
2019-01-04T01:18:35.067Z,9.40
2019-01-04T01:22:02.539Z,9.23
2019-01-04T01:25:30.023Z,9.57
2019-01-04T01:28:57.506Z,9.40
2019-01-04T01:32:24.965Z,9.20
2019-01-04T01:35:52.455Z,8.47
2019-01-04T01:39:19.909Z,8.77
2019-01-04T01:42:47.399Z,9.47
2019-01-04T01:46:14.884Z,9.97
2019-01-04T01:49:42.368Z,9.07
2019-01-04T01:52:50.500Z,8.77
2019-01-04T01:55:39.266Z,8.93
2019-01-04T01:58:28.052Z,9.17
2019-01-04T02:01:16.811Z,9.07
2019-01-04T02:04:05.599Z,9.10
2019-01-04T02:06:54.422Z,9.27
2019-01-04T02:09:35.810Z,8.70
2019-01-04T02:12:24.610Z,9.37
2019-01-04T02:15:13.434Z,8.93
2019-01-04T02:18:02.237Z,8.83
2019-01-04T02:24:00.407Z,9.33
2019-01-04T02:26:49.200Z,9.00
2019-01-04T02:29:37.971Z,10.00
2019-01-04T02:32:26.762Z,9.00
2019-01-04T02:38:23.278Z,9.60
2019-01-04T02:41:12.053Z,8.97
2019-01-04T02:44:00.859Z,9.60
2019-01-04T02:46:49.610Z,9.47
2019-01-04T02:49:38.390Z,8.83
2019-01-04T02:52:27.173Z,9.77
2019-01-04T02:55:15.967Z,9.47
2019-01-04T02:58:04.771Z,9.47
2019-01-04T03:00:53.531Z,8.90
2019-01-04T03:03:42.305Z,9.23
2019-01-04T03:06:31.061Z,9.37
2019-01-04T03:09:19.861Z,9.03
2019-01-04T03:12:01.984Z,10.07
2019-01-04T03:14:50.752Z,9.80
2019-01-04T03:17:39.591Z,8.83
2019-01-04T03:20:28.346Z,8.33
2019-01-04T03:23:17.121Z,8.40
2019-01-04T03:26:05.888Z,8.60
2019-01-04T03:28:54.664Z,8.83
2019-01-04T03:31:43.460Z,9.23
2019-01-04T03:34:33.929Z,9.03
2019-01-04T03:37:22.719Z,8.73
2019-01-04T03:40:11.491Z,8.70
2019-01-04T03:43:00.302Z,8.50
2019-01-04T03:45:49.067Z,8.33
2019-01-04T03:48:31.192Z,9.90
2019-01-04T03:51:20.095Z,9.17
2019-01-04T03:54:08.896Z,8.53
2019-01-04T03:56:57.663Z,9.00
2019-01-04T03:59:46.454Z,9.33
2019-01-04T04:02:54.593Z,9.20
2019-01-04T04:05:43.342Z,9.83
2019-01-04T04:08:32.132Z,8.97
2019-01-04T04:11:20.941Z,9.30
2019-01-04T04:14:09.725Z,9.63
2019-01-04T04:16:58.491Z,9.67
2019-01-04T04:19:47.302Z,9.13
2019-01-04T04:22:36.141Z,8.73
2019-01-04T04:25:05.750Z,9.70
2019-01-04T04:27:35.211Z,9.33
2019-01-04T04:30:25.692Z,9.53
2019-01-04T04:32:55.159Z,9.20
2019-01-04T04:35:43.924Z,8.50
2019-01-04T04:38:32.701Z,9.23
2019-01-04T04:41:21.493Z,9.30
2019-01-04T04:44:10.278Z,9.30
2019-01-04T04:46:50.006Z,9.30
2019-01-04T04:49:38.790Z,9.07
2019-01-04T04:52:27.604Z,9.03
2019-01-04T04:55:16.366Z,9.10
2019-01-04T04:58:05.161Z,8.97
2019-01-04T05:00:53.937Z,8.80
2019-01-04T05:03:42.706Z,8.90
2019-01-04T05:06:31.468Z,9.10
2019-01-04T05:09:20.285Z,9.40
2019-01-04T05:12:09.056Z,9.33
2019-01-04T05:14:57.841Z,9.10
2019-01-04T05:17:46.637Z,9.37
2019-01-04T05:20:35.408Z,9.80
2019-01-04T05:23:24.191Z,9.60
2019-01-04T05:26:12.953Z,9.57
2019-01-04T05:29:01.755Z,10.27
2019-01-04T05:31:43.021Z,9.27
2019-01-04T05:34:31.838Z,9.57
2019-01-04T05:37:20.610Z,8.97
2019-01-04T05:40:09.368Z,9.57
2019-01-04T05:42:58.139Z,9.43
2019-01-04T05:45:46.946Z,9.43
2019-01-04T05:48:35.761Z,9.40
2019-01-04T05:51:24.552Z,9.87
2019-01-04T05:54:13.329Z,9.70
2019-01-04T05:57:02.089Z,9.83
2019-01-04T05:59:50.866Z,9.63
2019-01-04T06:02:39.644Z,10.10
2019-01-04T06:05:28.421Z,9.80
2019-01-04T06:08:17.198Z,10.00
2019-01-04T06:11:05.981Z,9.43
2019-01-04T06:13:54.765Z,9.80
2019-01-04T06:16:43.529Z,9.87
2019-01-04T06:19:32.315Z,11.03
2019-01-04T06:22:21.098Z,10.03
2019-01-04T06:25:09.877Z,10.17
2019-01-04T06:27:58.711Z,10.17
2019-01-04T06:30:47.499Z,9.47
2019-01-04T06:33:29.587Z,10.43
2019-01-04T06:36:18.362Z,12.17
2019-01-04T06:39:07.617Z,11.70
2019-01-04T06:41:56.472Z,10.23
2019-01-04T06:44:45.251Z,10.43
2019-01-04T06:51:02.462Z,11.00
2019-01-04T06:53:51.242Z,10.33
2019-01-04T06:56:40.037Z,10.50
2019-01-04T06:59:28.816Z,11.10
2019-01-04T07:02:17.584Z,10.27
2019-01-04T07:08:21.586Z,10.47
2019-01-04T07:11:10.388Z,10.17
2019-01-04T07:13:39.869Z,10.00
2019-01-04T07:16:09.315Z,10.77
2019-01-04T07:18:38.742Z,10.20
2019-01-04T07:21:08.214Z,10.40
2019-01-04T07:23:37.633Z,10.87
2019-01-04T07:26:07.075Z,9.87
2019-01-04T07:28:36.651Z,10.60
2019-01-04T07:31:06.138Z,10.10
2019-01-04T07:33:35.579Z,10.07
2019-01-04T07:36:05.017Z,10.33
2019-01-04T07:38:34.471Z,9.83
2019-01-04T07:41:03.921Z,11.27
2019-01-04T07:43:33.365Z,10.13
2019-01-04T07:46:02.813Z,11.07
2019-01-04T07:48:32.281Z,17.17
2019-01-04T07:51:01.710Z,12.57
2019-01-04T07:53:31.173Z,12.07
2019-01-04T07:56:00.733Z,18.40
2019-01-04T07:58:30.140Z,10.60
2019-01-04T08:00:59.675Z,10.63
2019-01-04T08:03:29.044Z,10.50
2019-01-04T08:05:58.514Z,12.17
2019-01-04T08:08:27.952Z,11.27
2019-01-04T08:10:57.394Z,10.97
2019-01-04T08:13:26.849Z,11.47
2019-01-04T08:15:56.303Z,11.20
2019-01-04T08:18:25.757Z,11.27
2019-01-04T08:20:55.212Z,11.10
2019-01-04T08:23:24.640Z,11.27
2019-01-04T08:25:54.094Z,10.83
2019-01-04T08:28:23.557Z,11.17
2019-01-04T08:30:52.964Z,10.60
2019-01-04T08:33:22.397Z,11.27
2019-01-04T08:35:51.867Z,11.23
2019-01-04T08:38:21.264Z,11.50
2019-01-04T08:40:50.734Z,12.67
2019-01-04T08:43:20.197Z,11.97
2019-01-04T08:45:49.642Z,11.73
2019-01-04T08:48:19.067Z,12.80
2019-01-04T08:50:48.499Z,13.07
2019-01-04T08:53:19.299Z,12.27
2019-01-04T08:55:48.750Z,11.90
2019-01-04T08:58:18.227Z,12.80
2019-01-04T09:00:47.674Z,12.60
2019-01-04T09:03:17.148Z,12.90
2019-01-04T09:05:46.570Z,12.77
2019-01-04T09:08:16.019Z,12.63
2019-01-04T09:10:45.484Z,13.20
2019-01-04T09:13:14.916Z,13.53
2019-01-04T09:15:44.351Z,13.70
2019-01-04T09:18:13.843Z,12.83
2019-01-04T09:20:43.260Z,12.97
2019-01-04T09:23:12.708Z,13.37
2019-01-04T09:25:42.135Z,12.70
2019-01-04T09:28:11.583Z,12.67
2019-01-04T09:30:40.998Z,13.03
2019-01-04T09:33:10.466Z,13.60
2019-01-04T09:35:39.892Z,13.83
2019-01-04T09:38:09.345Z,13.83
2019-01-04T09:40:38.792Z,13.83
2019-01-04T09:43:09.508Z,14.80
2019-01-04T09:45:38.966Z,14.80
2019-01-04T09:48:08.465Z,14.33
2019-01-04T09:50:37.900Z,14.77
2019-01-04T09:53:07.329Z,14.47
2019-01-04T09:55:36.820Z,15.33
2019-01-04T09:58:06.239Z,14.63
2019-01-04T10:00:35.693Z,14.07
2019-01-04T10:03:05.154Z,14.50
2019-01-04T10:05:34.587Z,15.07
2019-01-04T10:08:04.018Z,14.07
2019-01-04T10:10:33.455Z,14.50
2019-01-04T10:13:02.885Z,14.07
2019-01-04T10:15:32.340Z,13.70
2019-01-04T10:18:01.766Z,14.27
2019-01-04T10:20:31.227Z,13.57
2019-01-04T10:23:00.657Z,14.03
2019-01-04T10:25:30.084Z,13.53
2019-01-04T10:27:59.515Z,13.10
2019-01-04T10:30:29.120Z,13.30
2019-01-04T10:32:58.555Z,14.13
2019-01-04T10:35:27.997Z,13.83
2019-01-04T10:37:57.431Z,13.20
2019-01-04T10:40:26.904Z,12.80
2019-01-04T10:42:56.318Z,13.03
2019-01-04T10:45:25.765Z,12.00
2019-01-04T10:47:55.191Z,11.80
2019-01-04T10:50:24.615Z,10.50
2019-01-04T10:52:54.063Z,11.60
2019-01-04T10:55:23.516Z,9.67
2019-01-04T10:57:52.981Z,10.53
2019-01-04T11:00:22.426Z,10.23
2019-01-04T11:02:51.906Z,10.10
2019-01-04T11:05:21.354Z,10.07
2019-01-04T11:07:50.777Z,10.50
2019-01-04T11:10:20.234Z,9.60
2019-01-04T11:12:49.685Z,10.33
2019-01-04T11:15:19.137Z,9.40
2019-01-04T11:17:48.574Z,10.33
2019-01-04T11:20:42.052Z,9.67
2019-01-04T11:23:36.530Z,9.47
2019-01-04T11:26:19.472Z,9.07
2019-01-04T11:28:53.600Z,9.23
2019-01-04T11:31:39.720Z,9.00
2019-01-04T11:34:33.346Z,7.70
2019-01-04T11:37:19.188Z,7.20
2019-01-04T11:40:15.365Z,6.40
2019-01-04T11:43:33.752Z,6.40
2019-01-04T11:46:43.877Z,5.77
2019-01-04T11:49:35.843Z,6.23
2019-01-04T11:52:12.888Z,5.73
2019-01-04T11:54:42.310Z,6.67
2019-01-04T11:57:11.757Z,6.40
2019-01-04T11:59:41.195Z,6.67
2019-01-04T12:02:10.640Z,6.63
2019-01-04T12:04:40.077Z,5.93
2019-01-04T12:07:09.513Z,5.83
2019-01-04T12:09:38.945Z,6.50
2019-01-04T12:12:08.401Z,6.73
2019-01-04T12:14:41.343Z,6.43
2019-01-04T12:17:08.987Z,8.33
2019-01-04T12:19:38.409Z,6.80
2019-01-04T12:22:07.857Z,6.63
2019-01-04T12:24:37.282Z,6.87
2019-01-04T12:27:06.727Z,7.20
2019-01-04T12:29:36.161Z,7.60
2019-01-04T12:32:05.599Z,8.13
2019-01-04T12:34:35.037Z,7.60
2019-01-04T12:37:04.488Z,8.63
2019-01-04T12:39:33.915Z,7.70
2019-01-04T12:42:03.396Z,7.10
2019-01-04T12:44:32.844Z,7.37
2019-01-04T12:47:02.302Z,6.63
2019-01-04T12:49:31.724Z,6.60
2019-01-04T12:52:01.183Z,6.60
2019-01-04T12:54:30.625Z,6.77
2019-01-04T12:57:00.096Z,5.90
2019-01-04T12:59:29.527Z,5.97
2019-01-04T13:01:58.988Z,6.03
2019-01-04T13:04:29.809Z,6.50
2019-01-04T13:06:59.281Z,6.63
2019-01-04T13:09:28.710Z,7.63
2019-01-04T13:11:58.158Z,6.97
2019-01-04T13:14:46.955Z,7.30
2019-01-04T13:17:35.781Z,7.77
2019-01-04T13:20:24.569Z,8.13
2019-01-04T13:23:13.343Z,8.37
2019-01-04T13:26:02.106Z,8.23
2019-01-04T13:28:50.905Z,8.70
2019-01-04T13:31:39.721Z,9.00
2019-01-04T13:34:28.518Z,9.27
2019-01-04T13:37:17.315Z,8.97
2019-01-04T13:40:06.471Z,10.10
2019-01-04T13:43:14.607Z,9.93
2019-01-04T13:46:03.379Z,10.40
2019-01-04T13:48:52.206Z,10.53
2019-01-04T13:51:40.999Z,11.17
2019-01-04T13:54:29.838Z,10.23
2019-01-04T13:57:18.628Z,10.77
2019-01-04T14:00:28.353Z,11.40
2019-01-04T14:03:17.135Z,10.37
2019-01-04T14:05:59.610Z,10.93
2019-01-04T14:08:48.419Z,11.70
2019-01-04T14:11:37.189Z,11.20
2019-01-04T14:14:25.990Z,11.30
2019-01-04T14:24:01.045Z,10.87
2019-01-04T14:26:49.814Z,11.00
2019-01-04T14:29:38.624Z,10.73
2019-01-04T14:32:28.025Z,12.10
2019-01-04T14:35:16.821Z,10.77
2019-01-04T14:38:05.650Z,9.63
2019-01-04T14:40:54.454Z,10.53
2019-01-04T14:43:43.296Z,10.83
2019-01-04T14:46:32.096Z,10.97
2019-01-04T14:49:20.888Z,11.43
2019-01-04T14:52:09.664Z,11.07
2019-01-04T14:54:58.432Z,11.10
2019-01-04T14:57:47.238Z,10.77
2019-01-04T15:00:36.067Z,10.93
2019-01-04T15:03:05.544Z,10.20
2019-01-04T15:05:34.959Z,10.83
2019-01-04T15:08:04.433Z,9.97
2019-01-04T15:10:33.864Z,9.83
2019-01-04T15:13:03.341Z,10.10
2019-01-04T15:15:32.789Z,9.10
2019-01-04T15:18:02.258Z,9.20
2019-01-04T15:20:31.682Z,9.40
2019-01-04T15:23:01.144Z,9.23
2019-01-04T15:25:30.568Z,8.90
2019-01-04T15:28:00.102Z,8.73
2019-01-04T15:30:29.575Z,8.90
2019-01-04T15:32:59.002Z,9.50
2019-01-04T15:35:28.456Z,8.47
2019-01-04T15:37:57.917Z,10.00
2019-01-04T15:40:28.880Z,8.13
2019-01-04T15:42:58.308Z,8.63
2019-01-04T15:45:27.782Z,7.53
2019-01-04T15:47:57.215Z,8.30
2019-01-04T15:50:28.282Z,7.80
2019-01-04T15:52:57.708Z,8.10
2019-01-04T15:55:27.174Z,8.17
2019-01-04T15:57:56.587Z,8.43
2019-01-04T16:00:27.668Z,8.70
2019-01-04T16:02:57.137Z,8.27
2019-01-04T16:05:27.034Z,7.67
2019-01-04T16:07:56.523Z,7.57
2019-01-04T16:10:27.247Z,7.60
2019-01-04T16:12:56.675Z,8.20
2019-01-04T16:15:26.104Z,7.73
2019-01-04T16:17:55.526Z,6.87
2019-01-04T16:20:25.017Z,7.13
2019-01-04T16:22:54.556Z,6.93
2019-01-04T16:25:24.015Z,6.97
2019-01-04T16:27:53.479Z,7.50
2019-01-04T16:30:22.961Z,7.20
2019-01-04T16:32:52.417Z,7.00
2019-01-04T16:35:21.880Z,6.83
2019-01-04T16:37:51.302Z,6.13
2019-01-04T16:40:20.769Z,6.33
2019-01-04T16:42:50.222Z,6.50
2019-01-04T16:45:19.687Z,6.87
2019-01-04T16:47:49.123Z,6.37
2019-01-04T16:50:18.578Z,6.10
2019-01-04T16:52:48.010Z,5.93
2019-01-04T16:55:17.465Z,5.37
2019-01-04T16:57:47.276Z,5.50
2019-01-04T17:00:16.825Z,5.30
2019-01-04T17:02:46.655Z,5.47
2019-01-04T17:05:16.311Z,4.73
2019-01-04T17:07:45.727Z,4.47
2019-01-04T17:10:15.193Z,4.70
2019-01-04T17:12:44.638Z,4.30
2019-01-04T17:15:14.129Z,4.47
2019-01-04T17:17:43.532Z,4.50
2019-01-04T17:20:13.000Z,4.53
2019-01-04T17:22:42.442Z,4.70
2019-01-04T17:25:12.399Z,4.40
2019-01-04T17:27:42.012Z,4.10
2019-01-04T17:30:11.498Z,4.40
2019-01-04T17:32:40.995Z,4.77
2019-01-04T17:35:10.460Z,4.63
2019-01-04T17:37:39.952Z,4.63
2019-01-04T17:40:10.563Z,4.47
2019-01-04T17:42:40.012Z,4.83
2019-01-04T17:45:09.784Z,5.03
2019-01-04T17:47:39.203Z,4.83
2019-01-04T17:50:09.538Z,3.90
2019-01-04T17:52:38.995Z,4.67
2019-01-04T17:55:08.450Z,4.37
2019-01-04T17:57:37.885Z,4.60
2019-01-04T18:00:10.354Z,5.53
2019-01-04T18:02:40.418Z,6.20
2019-01-04T18:05:09.916Z,4.13
2019-01-04T18:07:39.369Z,4.40
2019-01-04T18:10:10.102Z,4.83
2019-01-04T18:12:39.551Z,4.20
2019-01-04T18:15:09.280Z,4.10
2019-01-04T18:17:38.736Z,3.50
2019-01-04T18:20:10.923Z,4.20
2019-01-04T18:22:40.494Z,4.20
2019-01-04T18:25:09.924Z,4.90
2019-01-04T18:27:39.379Z,4.07
2019-01-04T18:30:10.553Z,3.70
2019-01-04T18:32:40.005Z,3.67
2019-01-04T18:35:09.463Z,3.70
2019-01-04T18:37:38.895Z,3.80
2019-01-04T18:40:10.085Z,3.70
2019-01-04T18:42:39.698Z,4.13
2019-01-04T18:45:09.292Z,3.60
2019-01-04T18:47:39.363Z,3.73
2019-01-04T18:50:12.545Z,4.10
2019-01-04T18:52:41.966Z,3.60
2019-01-04T18:55:12.330Z,4.10
2019-01-04T18:57:41.776Z,3.80
2019-01-04T19:00:12.439Z,4.13
2019-01-04T19:02:41.876Z,3.50
2019-01-04T19:05:11.451Z,4.63
2019-01-04T19:07:40.943Z,4.30
2019-01-04T19:10:11.049Z,3.43
2019-01-04T19:12:40.477Z,4.00
2019-01-04T19:15:11.131Z,5.20
2019-01-04T19:17:40.707Z,4.80
2019-01-04T19:20:10.136Z,4.20
2019-01-04T19:22:39.703Z,4.50
2019-01-04T19:25:09.182Z,3.93
2019-01-04T19:27:38.645Z,4.00
2019-01-04T19:30:09.552Z,4.60
2019-01-04T19:32:38.990Z,3.93
2019-01-04T19:35:08.591Z,4.50
2019-01-04T19:37:38.068Z,4.13
2019-01-04T19:40:08.220Z,4.93
2019-01-04T19:42:37.733Z,6.77
2019-01-04T19:45:07.812Z,6.33
2019-01-04T19:47:37.350Z,5.33
2019-01-04T19:50:22.706Z,4.80
2019-01-04T19:52:52.245Z,5.10
2019-01-04T19:55:21.668Z,4.90
2019-01-04T19:57:51.103Z,5.23
2019-01-04T20:00:20.562Z,5.53
2019-01-04T20:02:50.066Z,5.00
2019-01-04T20:05:27.180Z,5.10
2019-01-04T20:08:17.762Z,4.83
2019-01-04T20:11:42.185Z,5.70
2019-01-04T20:14:48.757Z,5.27
2019-01-04T20:17:20.595Z,5.30
2019-01-04T20:20:07.482Z,4.77
2019-01-04T20:22:42.933Z,5.03
2019-01-04T20:25:19.955Z,5.40
2019-01-04T20:27:51.097Z,4.63
2019-01-04T20:30:26.454Z,5.30
2019-01-04T20:33:12.563Z,4.83
2019-01-04T20:35:43.647Z,5.63
2019-01-04T20:38:17.140Z,5.23
2019-01-04T20:40:52.134Z,8.30
2019-01-04T20:43:40.970Z,5.43
2019-01-04T20:46:12.039Z,5.63
2019-01-04T20:48:42.174Z,5.40
2019-01-04T20:51:18.680Z,5.77
2019-01-04T20:53:55.469Z,5.57
2019-01-04T20:56:29.263Z,6.03
2019-01-04T20:59:12.106Z,5.57
2019-01-04T21:02:20.308Z,5.70
2019-01-04T21:08:36.174Z,5.83
2019-01-04T21:11:43.984Z,5.37
2019-01-04T21:14:51.837Z,6.17
2019-01-04T21:17:59.714Z,5.40
2019-01-04T21:21:07.511Z,6.33
2019-01-04T21:30:26.419Z,6.60
2019-01-04T21:33:34.249Z,6.50
2019-01-04T21:37:01.391Z,6.67
2019-01-04T21:39:47.250Z,6.97
2019-01-04T21:46:04.496Z,6.73
2019-01-04T21:49:12.356Z,7.07
2019-01-04T21:52:20.154Z,7.20
2019-01-04T21:55:27.960Z,7.20
2019-01-04T21:58:35.802Z,7.70
2019-01-04T22:01:43.614Z,7.80
2019-01-04T22:04:51.430Z,7.63
2019-01-04T22:07:59.245Z,8.07
2019-01-04T22:11:07.071Z,8.60
2019-01-04T22:14:14.926Z,8.47
2019-01-04T22:17:22.740Z,8.27
2019-01-04T22:20:30.538Z,8.97
2019-01-04T22:23:19.168Z,8.50
2019-01-04T22:26:26.982Z,8.27
2019-01-04T22:29:34.775Z,8.23
2019-01-04T22:32:42.600Z,9.47
2019-01-04T22:35:50.467Z,9.07
2019-01-04T22:38:58.293Z,9.57
2019-01-04T22:41:58.589Z,8.87
2019-01-04T22:45:06.414Z,9.10
2019-01-04T22:48:14.229Z,9.27
2019-01-04T22:51:22.032Z,10.00
2019-01-04T22:54:30.284Z,9.60
2019-01-04T23:00:10.058Z,9.97
2019-01-04T23:03:18.108Z,10.77
2019-01-04T23:06:48.221Z,9.53
2019-01-04T23:10:20.589Z,10.27
2019-01-04T23:13:29.095Z,10.17
2019-01-04T23:16:57.874Z,10.27
2019-01-04T23:20:05.678Z,10.67
2019-01-04T23:23:13.480Z,10.17
2019-01-04T23:26:21.299Z,10.60
2019-01-04T23:32:25.021Z,10.70
2019-01-04T23:38:31.728Z,10.30
2019-01-04T23:44:38.799Z,11.40
2019-01-04T23:53:30.417Z,11.87
2019-01-04T23:56:31.767Z,11.63
2019-01-04T23:59:28.672Z,11.27
